sensor_id;sensor_type;location;lat;lon;timestamp;P1;durP1;ratioP1;P2;durP2;ratioP2
16824;SDS011;8529;48.108;-1.706;2023-08-21T00:01:39;5.53;;;1.70;;
16824;SDS011;8529;48.108;-1.706;2023-08-21T00:04:06;4.20;;;1.15;;
16824;SDS011;8529;48.108;-1.706;2023-08-21T00:06:33;2.40;;;1.05;;
16824;SDS011;8529;48.108;-1.706;2023-08-21T00:09:02;6.18;;;1.30;;
16824;SDS011;8529;48.108;-1.706;2023-08-21T00:11:29;3.30;;;1.27;;
16824;SDS011;8529;48.108;-1.706;2023-08-21T00:13:56;6.47;;;1.77;;
16824;SDS011;8529;48.108;-1.706;2023-08-21T00:16:23;2.90;;;1.25;;
16824;SDS011;8529;48.108;-1.706;2023-08-21T00:18:51;4.00;;;1.30;;
16824;SDS011;8529;48.108;-1.706;2023-08-21T00:21:18;5.35;;;1.65;;
16824;SDS011;8529;48.108;-1.706;2023-08-21T00:23:45;3.92;;;1.33;;
16824;SDS011;8529;48.108;-1.706;2023-08-21T00:26:14;2.45;;;1.42;;
16824;SDS011;8529;48.108;-1.706;2023-08-21T00:28:40;3.78;;;1.38;;
16824;SDS011;8529;48.108;-1.706;2023-08-21T00:31:07;3.08;;;1.35;;
16824;SDS011;8529;48.108;-1.706;2023-08-21T00:33:34;3.53;;;1.35;;
16824;SDS011;8529;48.108;-1.706;2023-08-21T00:36:02;6.40;;;1.77;;
16824;SDS011;8529;48.108;-1.706;2023-08-21T00:38:29;4.30;;;1.52;;
16824;SDS011;8529;48.108;-1.706;2023-08-21T00:40:56;9.15;;;1.60;;
16824;SDS011;8529;48.108;-1.706;2023-08-21T00:43:24;4.90;;;1.27;;
16824;SDS011;8529;48.108;-1.706;2023-08-21T00:45:51;2.85;;;1.40;;
16824;SDS011;8529;48.108;-1.706;2023-08-21T00:48:18;3.70;;;1.35;;
16824;SDS011;8529;48.108;-1.706;2023-08-21T00:50:46;2.95;;;1.40;;
16824;SDS011;8529;48.108;-1.706;2023-08-21T00:53:13;5.28;;;1.60;;
16824;SDS011;8529;48.108;-1.706;2023-08-21T00:55:40;5.32;;;1.60;;
16824;SDS011;8529;48.108;-1.706;2023-08-21T00:58:08;5.20;;;1.48;;
16824;SDS011;8529;48.108;-1.706;2023-08-21T01:00:38;3.85;;;1.25;;
16824;SDS011;8529;48.108;-1.706;2023-08-21T01:03:06;5.90;;;1.60;;
16824;SDS011;8529;48.108;-1.706;2023-08-21T01:05:34;2.03;;;1.20;;
16824;SDS011;8529;48.108;-1.706;2023-08-21T01:08:02;4.82;;;1.65;;
16824;SDS011;8529;48.108;-1.706;2023-08-21T01:10:34;3.95;;;1.45;;
16824;SDS011;8529;48.108;-1.706;2023-08-21T01:13:11;4.05;;;1.88;;
16824;SDS011;8529;48.108;-1.706;2023-08-21T01:15:49;4.10;;;1.80;;
16824;SDS011;8529;48.108;-1.706;2023-08-21T01:18:20;3.75;;;1.42;;
16824;SDS011;8529;48.108;-1.706;2023-08-21T01:20:47;4.43;;;1.70;;
16824;SDS011;8529;48.108;-1.706;2023-08-21T01:23:28;2.95;;;1.30;;
16824;SDS011;8529;48.108;-1.706;2023-08-21T01:25:56;3.88;;;1.40;;
16824;SDS011;8529;48.108;-1.706;2023-08-21T01:28:23;2.80;;;1.20;;
16824;SDS011;8529;48.108;-1.706;2023-08-21T01:30:50;3.83;;;1.60;;
16824;SDS011;8529;48.108;-1.706;2023-08-21T01:33:21;2.42;;;1.30;;
16824;SDS011;8529;48.108;-1.706;2023-08-21T01:35:50;3.35;;;1.25;;
16824;SDS011;8529;48.108;-1.706;2023-08-21T01:38:17;4.45;;;1.30;;
16824;SDS011;8529;48.108;-1.706;2023-08-21T01:40:47;3.50;;;1.30;;
16824;SDS011;8529;48.108;-1.706;2023-08-21T01:43:14;6.03;;;1.55;;
16824;SDS011;8529;48.108;-1.706;2023-08-21T01:45:41;3.03;;;1.23;;
16824;SDS011;8529;48.108;-1.706;2023-08-21T01:48:08;4.00;;;1.60;;
16824;SDS011;8529;48.108;-1.706;2023-08-21T01:50:35;8.07;;;1.65;;
16824;SDS011;8529;48.108;-1.706;2023-08-21T01:53:02;3.90;;;1.27;;
16824;SDS011;8529;48.108;-1.706;2023-08-21T01:55:29;2.42;;;1.30;;
16824;SDS011;8529;48.108;-1.706;2023-08-21T01:57:57;5.40;;;1.20;;
16824;SDS011;8529;48.108;-1.706;2023-08-21T02:00:24;3.35;;;1.63;;
16824;SDS011;8529;48.108;-1.706;2023-08-21T02:02:51;2.75;;;1.30;;
16824;SDS011;8529;48.108;-1.706;2023-08-21T02:05:18;6.55;;;1.88;;
16824;SDS011;8529;48.108;-1.706;2023-08-21T02:07:45;3.78;;;1.30;;
16824;SDS011;8529;48.108;-1.706;2023-08-21T02:10:12;4.95;;;1.45;;
16824;SDS011;8529;48.108;-1.706;2023-08-21T02:12:38;2.58;;;1.33;;
16824;SDS011;8529;48.108;-1.706;2023-08-21T02:15:07;4.30;;;1.45;;
16824;SDS011;8529;48.108;-1.706;2023-08-21T02:17:35;5.47;;;1.58;;
16824;SDS011;8529;48.108;-1.706;2023-08-21T02:20:02;4.10;;;1.58;;
16824;SDS011;8529;48.108;-1.706;2023-08-21T02:22:29;5.35;;;1.88;;
16824;SDS011;8529;48.108;-1.706;2023-08-21T02:24:56;7.28;;;1.52;;
16824;SDS011;8529;48.108;-1.706;2023-08-21T02:27:23;6.00;;;1.50;;
16824;SDS011;8529;48.108;-1.706;2023-08-21T02:29:50;4.50;;;1.70;;
16824;SDS011;8529;48.108;-1.706;2023-08-21T02:32:18;5.80;;;1.67;;
16824;SDS011;8529;48.108;-1.706;2023-08-21T02:34:45;4.43;;;1.65;;
16824;SDS011;8529;48.108;-1.706;2023-08-21T02:37:12;6.03;;;1.60;;
16824;SDS011;8529;48.108;-1.706;2023-08-21T02:39:39;4.35;;;1.60;;
16824;SDS011;8529;48.108;-1.706;2023-08-21T02:42:06;6.30;;;1.77;;
16824;SDS011;8529;48.108;-1.706;2023-08-21T02:44:34;5.35;;;1.70;;
16824;SDS011;8529;48.108;-1.706;2023-08-21T02:47:01;10.07;;;2.30;;
16824;SDS011;8529;48.108;-1.706;2023-08-21T02:49:29;7.82;;;1.88;;
16824;SDS011;8529;48.108;-1.706;2023-08-21T02:51:56;5.38;;;2.10;;
16824;SDS011;8529;48.108;-1.706;2023-08-21T02:54:23;5.15;;;1.80;;
16824;SDS011;8529;48.108;-1.706;2023-08-21T02:56:50;5.65;;;2.38;;
16824;SDS011;8529;48.108;-1.706;2023-08-21T02:59:17;6.50;;;2.55;;
16824;SDS011;8529;48.108;-1.706;2023-08-21T03:01:43;3.45;;;1.73;;
16824;SDS011;8529;48.108;-1.706;2023-08-21T03:04:10;4.18;;;1.55;;
16824;SDS011;8529;48.108;-1.706;2023-08-21T03:06:39;4.25;;;1.67;;
16824;SDS011;8529;48.108;-1.706;2023-08-21T03:09:05;6.90;;;2.15;;
16824;SDS011;8529;48.108;-1.706;2023-08-21T03:11:32;6.15;;;2.05;;
16824;SDS011;8529;48.108;-1.706;2023-08-21T03:13:59;4.18;;;1.75;;
16824;SDS011;8529;48.108;-1.706;2023-08-21T03:16:26;6.00;;;2.15;;
16824;SDS011;8529;48.108;-1.706;2023-08-21T03:18:53;3.92;;;1.80;;
16824;SDS011;8529;48.108;-1.706;2023-08-21T03:21:21;3.47;;;1.90;;
16824;SDS011;8529;48.108;-1.706;2023-08-21T03:23:51;3.85;;;1.80;;
16824;SDS011;8529;48.108;-1.706;2023-08-21T03:26:20;5.07;;;2.20;;
16824;SDS011;8529;48.108;-1.706;2023-08-21T03:28:47;7.97;;;2.38;;
16824;SDS011;8529;48.108;-1.706;2023-08-21T03:31:14;4.45;;;1.85;;
16824;SDS011;8529;48.108;-1.706;2023-08-21T03:33:41;5.97;;;1.90;;
16824;SDS011;8529;48.108;-1.706;2023-08-21T03:36:08;6.72;;;2.10;;
16824;SDS011;8529;48.108;-1.706;2023-08-21T03:38:35;6.18;;;2.78;;
16824;SDS011;8529;48.108;-1.706;2023-08-21T03:41:03;10.25;;;2.28;;
16824;SDS011;8529;48.108;-1.706;2023-08-21T03:43:30;6.22;;;2.20;;
16824;SDS011;8529;48.108;-1.706;2023-08-21T03:45:58;5.00;;;2.00;;
16824;SDS011;8529;48.108;-1.706;2023-08-21T03:48:25;5.13;;;2.50;;
16824;SDS011;8529;48.108;-1.706;2023-08-21T03:50:51;8.77;;;2.90;;
16824;SDS011;8529;48.108;-1.706;2023-08-21T03:53:18;5.88;;;2.67;;
16824;SDS011;8529;48.108;-1.706;2023-08-21T03:55:45;5.90;;;3.17;;
16824;SDS011;8529;48.108;-1.706;2023-08-21T03:58:13;6.78;;;3.17;;
16824;SDS011;8529;48.108;-1.706;2023-08-21T04:00:41;7.47;;;3.67;;
16824;SDS011;8529;48.108;-1.706;2023-08-21T04:03:08;8.85;;;3.55;;
16824;SDS011;8529;48.108;-1.706;2023-08-21T04:05:34;8.20;;;3.83;;
16824;SDS011;8529;48.108;-1.706;2023-08-21T04:08:01;7.85;;;3.92;;
16824;SDS011;8529;48.108;-1.706;2023-08-21T04:10:29;9.00;;;3.78;;
16824;SDS011;8529;48.108;-1.706;2023-08-21T04:12:55;6.07;;;3.40;;
16824;SDS011;8529;48.108;-1.706;2023-08-21T04:15:24;8.73;;;4.13;;
16824;SDS011;8529;48.108;-1.706;2023-08-21T04:17:51;7.57;;;4.00;;
16824;SDS011;8529;48.108;-1.706;2023-08-21T04:20:19;6.85;;;3.60;;
16824;SDS011;8529;48.108;-1.706;2023-08-21T04:22:46;5.82;;;3.40;;
16824;SDS011;8529;48.108;-1.706;2023-08-21T04:25:13;6.25;;;3.60;;
16824;SDS011;8529;48.108;-1.706;2023-08-21T04:27:40;7.45;;;3.58;;
16824;SDS011;8529;48.108;-1.706;2023-08-21T04:30:08;7.78;;;3.70;;
16824;SDS011;8529;48.108;-1.706;2023-08-21T04:32:37;7.63;;;3.47;;
16824;SDS011;8529;48.108;-1.706;2023-08-21T04:35:04;6.20;;;3.40;;
16824;SDS011;8529;48.108;-1.706;2023-08-21T04:37:33;7.22;;;3.53;;
16824;SDS011;8529;48.108;-1.706;2023-08-21T04:40:00;5.38;;;3.47;;
16824;SDS011;8529;48.108;-1.706;2023-08-21T04:42:27;6.70;;;3.60;;
16824;SDS011;8529;48.108;-1.706;2023-08-21T04:44:54;5.57;;;3.53;;
16824;SDS011;8529;48.108;-1.706;2023-08-21T04:47:21;5.97;;;3.13;;
16824;SDS011;8529;48.108;-1.706;2023-08-21T04:49:50;5.53;;;3.28;;
16824;SDS011;8529;48.108;-1.706;2023-08-21T04:52:17;6.40;;;3.50;;
16824;SDS011;8529;48.108;-1.706;2023-08-21T04:54:44;4.65;;;3.10;;
16824;SDS011;8529;48.108;-1.706;2023-08-21T04:57:11;5.13;;;3.25;;
16824;SDS011;8529;48.108;-1.706;2023-08-21T04:59:38;4.57;;;3.13;;
16824;SDS011;8529;48.108;-1.706;2023-08-21T05:02:05;4.40;;;2.92;;
16824;SDS011;8529;48.108;-1.706;2023-08-21T05:04:33;6.18;;;3.08;;
16824;SDS011;8529;48.108;-1.706;2023-08-21T05:07:03;6.22;;;3.33;;
16824;SDS011;8529;48.108;-1.706;2023-08-21T05:09:30;4.70;;;3.45;;
16824;SDS011;8529;48.108;-1.706;2023-08-21T05:11:57;5.75;;;3.22;;
16824;SDS011;8529;48.108;-1.706;2023-08-21T05:14:24;6.65;;;3.42;;
16824;SDS011;8529;48.108;-1.706;2023-08-21T05:16:51;5.25;;;3.65;;
16824;SDS011;8529;48.108;-1.706;2023-08-21T05:19:18;8.13;;;3.47;;
16824;SDS011;8529;48.108;-1.706;2023-08-21T05:21:45;5.68;;;3.40;;
16824;SDS011;8529;48.108;-1.706;2023-08-21T05:24:13;7.47;;;3.80;;
16824;SDS011;8529;48.108;-1.706;2023-08-21T05:26:40;6.55;;;3.92;;
16824;SDS011;8529;48.108;-1.706;2023-08-21T05:29:07;7.45;;;3.58;;
16824;SDS011;8529;48.108;-1.706;2023-08-21T05:31:34;5.25;;;3.40;;
16824;SDS011;8529;48.108;-1.706;2023-08-21T05:34:01;5.93;;;3.25;;
16824;SDS011;8529;48.108;-1.706;2023-08-21T05:36:28;6.05;;;3.50;;
16824;SDS011;8529;48.108;-1.706;2023-08-21T05:38:56;6.35;;;3.80;;
16824;SDS011;8529;48.108;-1.706;2023-08-21T05:41:24;6.82;;;4.18;;
16824;SDS011;8529;48.108;-1.706;2023-08-21T05:43:51;6.53;;;3.60;;
16824;SDS011;8529;48.108;-1.706;2023-08-21T05:46:18;5.22;;;3.42;;
16824;SDS011;8529;48.108;-1.706;2023-08-21T05:48:45;5.45;;;3.22;;
16824;SDS011;8529;48.108;-1.706;2023-08-21T05:51:11;4.53;;;3.25;;
16824;SDS011;8529;48.108;-1.706;2023-08-21T05:53:39;5.18;;;3.45;;
16824;SDS011;8529;48.108;-1.706;2023-08-21T05:56:06;3.28;;;2.80;;
16824;SDS011;8529;48.108;-1.706;2023-08-21T05:58:34;4.00;;;2.88;;
16824;SDS011;8529;48.108;-1.706;2023-08-21T06:01:01;6.15;;;3.00;;
16824;SDS011;8529;48.108;-1.706;2023-08-21T06:03:28;4.18;;;2.53;;
16824;SDS011;8529;48.108;-1.706;2023-08-21T06:05:54;3.67;;;2.70;;
16824;SDS011;8529;48.108;-1.706;2023-08-21T06:08:21;4.47;;;3.10;;
16824;SDS011;8529;48.108;-1.706;2023-08-21T06:10:50;5.07;;;2.95;;
16824;SDS011;8529;48.108;-1.706;2023-08-21T06:13:17;4.78;;;2.85;;
16824;SDS011;8529;48.108;-1.706;2023-08-21T06:15:46;5.97;;;2.75;;
16824;SDS011;8529;48.108;-1.706;2023-08-21T06:18:13;4.93;;;2.50;;
16824;SDS011;8529;48.108;-1.706;2023-08-21T06:20:41;7.10;;;2.63;;
16824;SDS011;8529;48.108;-1.706;2023-08-21T06:23:09;3.92;;;2.95;;
16824;SDS011;8529;48.108;-1.706;2023-08-21T06:25:37;3.25;;;2.30;;
16824;SDS011;8529;48.108;-1.706;2023-08-21T06:28:04;4.70;;;3.00;;
16824;SDS011;8529;48.108;-1.706;2023-08-21T06:30:31;6.15;;;3.17;;
16824;SDS011;8529;48.108;-1.706;2023-08-21T06:32:59;4.93;;;3.50;;
16824;SDS011;8529;48.108;-1.706;2023-08-21T06:35:26;6.00;;;3.65;;
16824;SDS011;8529;48.108;-1.706;2023-08-21T06:37:53;5.43;;;3.88;;
16824;SDS011;8529;48.108;-1.706;2023-08-21T06:40:20;4.65;;;3.65;;
16824;SDS011;8529;48.108;-1.706;2023-08-21T06:42:47;5.40;;;3.28;;
16824;SDS011;8529;48.108;-1.706;2023-08-21T06:45:16;5.13;;;3.38;;
16824;SDS011;8529;48.108;-1.706;2023-08-21T06:47:43;6.43;;;3.35;;
16824;SDS011;8529;48.108;-1.706;2023-08-21T06:50:11;6.45;;;3.30;;
16824;SDS011;8529;48.108;-1.706;2023-08-21T06:52:39;6.32;;;2.92;;
16824;SDS011;8529;48.108;-1.706;2023-08-21T06:55:06;4.03;;;2.70;;
16824;SDS011;8529;48.108;-1.706;2023-08-21T06:57:33;3.22;;;2.08;;
16824;SDS011;8529;48.108;-1.706;2023-08-21T07:00:01;3.85;;;2.30;;
16824;SDS011;8529;48.108;-1.706;2023-08-21T07:02:29;5.70;;;2.45;;
16824;SDS011;8529;48.108;-1.706;2023-08-21T07:04:56;3.17;;;2.35;;
16824;SDS011;8529;48.108;-1.706;2023-08-21T07:07:24;4.45;;;2.22;;
16824;SDS011;8529;48.108;-1.706;2023-08-21T07:09:51;2.80;;;1.95;;
16824;SDS011;8529;48.108;-1.706;2023-08-21T07:12:18;6.53;;;2.50;;
16824;SDS011;8529;48.108;-1.706;2023-08-21T07:14:45;3.10;;;2.10;;
16824;SDS011;8529;48.108;-1.706;2023-08-21T07:17:11;4.10;;;1.95;;
16824;SDS011;8529;48.108;-1.706;2023-08-21T07:19:38;4.05;;;2.13;;
16824;SDS011;8529;48.108;-1.706;2023-08-21T07:22:05;4.68;;;2.22;;
16824;SDS011;8529;48.108;-1.706;2023-08-21T07:24:34;2.72;;;2.30;;
16824;SDS011;8529;48.108;-1.706;2023-08-21T07:27:00;1.70;;;1.50;;
16824;SDS011;8529;48.108;-1.706;2023-08-21T07:29:27;15.38;;;2.05;;
16824;SDS011;8529;48.108;-1.706;2023-08-21T07:31:55;4.47;;;1.67;;
16824;SDS011;8529;48.108;-1.706;2023-08-21T07:34:22;4.25;;;1.92;;
16824;SDS011;8529;48.108;-1.706;2023-08-21T07:36:49;3.17;;;2.00;;
16824;SDS011;8529;48.108;-1.706;2023-08-21T07:39:16;4.82;;;1.70;;
16824;SDS011;8529;48.108;-1.706;2023-08-21T07:41:44;4.65;;;1.65;;
16824;SDS011;8529;48.108;-1.706;2023-08-21T07:44:11;3.33;;;1.90;;
16824;SDS011;8529;48.108;-1.706;2023-08-21T07:46:38;3.83;;;1.70;;
16824;SDS011;8529;48.108;-1.706;2023-08-21T07:49:05;6.47;;;2.03;;
16824;SDS011;8529;48.108;-1.706;2023-08-21T07:51:32;3.28;;;1.48;;
16824;SDS011;8529;48.108;-1.706;2023-08-21T07:53:59;3.83;;;1.88;;
16824;SDS011;8529;48.108;-1.706;2023-08-21T07:56:25;3.38;;;1.63;;
16824;SDS011;8529;48.108;-1.706;2023-08-21T07:58:54;4.93;;;1.90;;
16824;SDS011;8529;48.108;-1.706;2023-08-21T08:01:20;5.45;;;1.92;;
16824;SDS011;8529;48.108;-1.706;2023-08-21T08:03:47;4.47;;;2.10;;
16824;SDS011;8529;48.108;-1.706;2023-08-21T08:06:15;1.88;;;1.23;;
16824;SDS011;8529;48.108;-1.706;2023-08-21T08:08:43;4.80;;;1.88;;
16824;SDS011;8529;48.108;-1.706;2023-08-21T08:11:10;3.80;;;1.83;;
16824;SDS011;8529;48.108;-1.706;2023-08-21T08:13:37;3.42;;;1.48;;
16824;SDS011;8529;48.108;-1.706;2023-08-21T08:16:06;3.72;;;1.88;;
16824;SDS011;8529;48.108;-1.706;2023-08-21T08:18:33;4.95;;;1.70;;
16824;SDS011;8529;48.108;-1.706;2023-08-21T08:20:59;3.15;;;1.50;;
16824;SDS011;8529;48.108;-1.706;2023-08-21T08:23:26;3.75;;;1.73;;
16824;SDS011;8529;48.108;-1.706;2023-08-21T08:25:53;5.15;;;2.10;;
16824;SDS011;8529;48.108;-1.706;2023-08-21T08:28:20;4.88;;;1.45;;
16824;SDS011;8529;48.108;-1.706;2023-08-21T08:30:47;3.72;;;2.28;;
16824;SDS011;8529;48.108;-1.706;2023-08-21T08:33:15;1.92;;;1.60;;
16824;SDS011;8529;48.108;-1.706;2023-08-21T08:35:42;2.72;;;1.55;;
16824;SDS011;8529;48.108;-1.706;2023-08-21T08:38:09;3.70;;;1.60;;
16824;SDS011;8529;48.108;-1.706;2023-08-21T08:40:37;3.13;;;1.58;;
16824;SDS011;8529;48.108;-1.706;2023-08-21T08:43:09;2.88;;;1.83;;
16824;SDS011;8529;48.108;-1.706;2023-08-21T08:45:37;6.43;;;1.83;;
16824;SDS011;8529;48.108;-1.706;2023-08-21T08:48:05;2.22;;;1.48;;
16824;SDS011;8529;48.108;-1.706;2023-08-21T08:50:34;2.70;;;1.60;;
16824;SDS011;8529;48.108;-1.706;2023-08-21T08:53:02;3.97;;;1.52;;
16824;SDS011;8529;48.108;-1.706;2023-08-21T08:55:29;2.80;;;1.60;;
16824;SDS011;8529;48.108;-1.706;2023-08-21T08:57:56;4.65;;;1.80;;
16824;SDS011;8529;48.108;-1.706;2023-08-21T09:00:23;2.75;;;1.50;;
16824;SDS011;8529;48.108;-1.706;2023-08-21T09:02:50;4.50;;;1.60;;
16824;SDS011;8529;48.108;-1.706;2023-08-21T09:05:18;3.83;;;1.50;;
16824;SDS011;8529;48.108;-1.706;2023-08-21T09:07:46;10.63;;;1.92;;
16824;SDS011;8529;48.108;-1.706;2023-08-21T09:10:29;3.60;;;1.55;;
16824;SDS011;8529;48.108;-1.706;2023-08-21T09:12:56;2.92;;;1.50;;
16824;SDS011;8529;48.108;-1.706;2023-08-21T09:15:27;3.72;;;1.88;;
16824;SDS011;8529;48.108;-1.706;2023-08-21T09:17:54;3.28;;;1.58;;
16824;SDS011;8529;48.108;-1.706;2023-08-21T09:20:21;4.15;;;1.83;;
16824;SDS011;8529;48.108;-1.706;2023-08-21T09:22:54;4.47;;;1.65;;
16824;SDS011;8529;48.108;-1.706;2023-08-21T09:25:21;6.78;;;2.00;;
16824;SDS011;8529;48.108;-1.706;2023-08-21T09:27:51;5.63;;;1.80;;
16824;SDS011;8529;48.108;-1.706;2023-08-21T09:30:19;3.80;;;1.80;;
16824;SDS011;8529;48.108;-1.706;2023-08-21T09:32:52;6.75;;;1.80;;
16824;SDS011;8529;48.108;-1.706;2023-08-21T09:35:20;6.53;;;1.50;;
16824;SDS011;8529;48.108;-1.706;2023-08-21T09:37:47;2.92;;;1.70;;
16824;SDS011;8529;48.108;-1.706;2023-08-21T09:40:16;7.68;;;1.60;;
16824;SDS011;8529;48.108;-1.706;2023-08-21T09:42:43;5.38;;;1.65;;
16824;SDS011;8529;48.108;-1.706;2023-08-21T09:45:10;2.78;;;1.65;;
16824;SDS011;8529;48.108;-1.706;2023-08-21T09:47:37;3.67;;;1.85;;
16824;SDS011;8529;48.108;-1.706;2023-08-21T09:50:05;3.00;;;1.60;;
16824;SDS011;8529;48.108;-1.706;2023-08-21T09:52:33;2.85;;;1.65;;
16824;SDS011;8529;48.108;-1.706;2023-08-21T09:55:01;3.63;;;1.40;;
16824;SDS011;8529;48.108;-1.706;2023-08-21T09:57:33;2.65;;;1.70;;
16824;SDS011;8529;48.108;-1.706;2023-08-21T10:00:01;5.32;;;1.70;;
16824;SDS011;8529;48.108;-1.706;2023-08-21T10:02:41;2.55;;;1.40;;
16824;SDS011;8529;48.108;-1.706;2023-08-21T10:05:11;2.88;;;1.48;;
16824;SDS011;8529;48.108;-1.706;2023-08-21T10:07:39;4.25;;;1.77;;
16824;SDS011;8529;48.108;-1.706;2023-08-21T10:10:08;4.22;;;1.70;;
16824;SDS011;8529;48.108;-1.706;2023-08-21T10:12:36;2.83;;;1.63;;
16824;SDS011;8529;48.108;-1.706;2023-08-21T10:15:04;2.65;;;1.45;;
16824;SDS011;8529;48.108;-1.706;2023-08-21T10:17:33;2.75;;;1.60;;
16824;SDS011;8529;48.108;-1.706;2023-08-21T10:20:02;2.88;;;1.58;;
16824;SDS011;8529;48.108;-1.706;2023-08-21T10:22:36;4.35;;;1.83;;
16824;SDS011;8529;48.108;-1.706;2023-08-21T10:25:13;4.65;;;1.90;;
16824;SDS011;8529;48.108;-1.706;2023-08-21T10:27:43;6.70;;;1.95;;
16824;SDS011;8529;48.108;-1.706;2023-08-21T10:30:12;5.85;;;1.48;;
16824;SDS011;8529;48.108;-1.706;2023-08-21T10:32:46;4.07;;;1.73;;
16824;SDS011;8529;48.108;-1.706;2023-08-21T10:35:14;2.05;;;1.23;;
16824;SDS011;8529;48.108;-1.706;2023-08-21T10:40:32;2.65;;;1.48;;
16824;SDS011;8529;48.108;-1.706;2023-08-21T10:43:00;3.38;;;1.63;;
16824;SDS011;8529;48.108;-1.706;2023-08-21T10:45:28;4.38;;;1.42;;
16824;SDS011;8529;48.108;-1.706;2023-08-21T10:47:56;2.55;;;1.40;;
16824;SDS011;8529;48.108;-1.706;2023-08-21T10:50:23;2.75;;;1.40;;
16824;SDS011;8529;48.108;-1.706;2023-08-21T10:52:51;3.92;;;1.75;;
16824;SDS011;8529;48.108;-1.706;2023-08-21T10:55:18;2.30;;;1.48;;
16824;SDS011;8529;48.108;-1.706;2023-08-21T10:57:45;4.72;;;1.85;;
16824;SDS011;8529;48.108;-1.706;2023-08-21T11:00:15;2.97;;;1.10;;
16824;SDS011;8529;48.108;-1.706;2023-08-21T11:02:44;2.63;;;1.35;;
16824;SDS011;8529;48.108;-1.706;2023-08-21T11:05:13;4.10;;;1.88;;
16824;SDS011;8529;48.108;-1.706;2023-08-21T11:07:41;4.55;;;1.40;;
16824;SDS011;8529;48.108;-1.706;2023-08-21T11:10:10;4.25;;;1.50;;
16824;SDS011;8529;48.108;-1.706;2023-08-21T11:12:47;2.75;;;1.50;;
16824;SDS011;8529;48.108;-1.706;2023-08-21T11:15:16;4.22;;;1.60;;
16824;SDS011;8529;48.108;-1.706;2023-08-21T11:17:50;2.60;;;1.35;;
16824;SDS011;8529;48.108;-1.706;2023-08-21T11:20:18;1.88;;;1.35;;
16824;SDS011;8529;48.108;-1.706;2023-08-21T11:22:45;2.60;;;1.20;;
16824;SDS011;8529;48.108;-1.706;2023-08-21T11:25:14;2.33;;;1.50;;
16824;SDS011;8529;48.108;-1.706;2023-08-21T11:27:41;3.42;;;1.20;;
16824;SDS011;8529;48.108;-1.706;2023-08-21T11:30:10;5.57;;;1.52;;
16824;SDS011;8529;48.108;-1.706;2023-08-21T11:32:39;3.05;;;1.40;;
16824;SDS011;8529;48.108;-1.706;2023-08-21T11:35:06;5.63;;;1.70;;
16824;SDS011;8529;48.108;-1.706;2023-08-21T11:37:34;7.03;;;1.52;;
16824;SDS011;8529;48.108;-1.706;2023-08-21T11:40:09;2.63;;;1.27;;
16824;SDS011;8529;48.108;-1.706;2023-08-21T11:42:36;2.38;;;1.20;;
16824;SDS011;8529;48.108;-1.706;2023-08-21T11:45:03;3.55;;;1.33;;
16824;SDS011;8529;48.108;-1.706;2023-08-21T11:47:31;2.83;;;1.38;;
16824;SDS011;8529;48.108;-1.706;2023-08-21T11:50:03;3.35;;;1.35;;
16824;SDS011;8529;48.108;-1.706;2023-08-21T11:52:31;3.13;;;1.27;;
16824;SDS011;8529;48.108;-1.706;2023-08-21T11:54:58;3.78;;;1.65;;
16824;SDS011;8529;48.108;-1.706;2023-08-21T11:57:25;1.90;;;1.25;;
16824;SDS011;8529;48.108;-1.706;2023-08-21T11:59:53;3.83;;;1.45;;
16824;SDS011;8529;48.108;-1.706;2023-08-21T12:02:21;2.85;;;1.50;;
16824;SDS011;8529;48.108;-1.706;2023-08-21T12:04:51;2.10;;;1.50;;
16824;SDS011;8529;48.108;-1.706;2023-08-21T12:07:20;4.03;;;1.63;;
16824;SDS011;8529;48.108;-1.706;2023-08-21T12:09:47;2.55;;;1.42;;
16824;SDS011;8529;48.108;-1.706;2023-08-21T12:12:14;3.22;;;1.92;;
16824;SDS011;8529;48.108;-1.706;2023-08-21T12:14:41;0.98;;;0.88;;
16824;SDS011;8529;48.108;-1.706;2023-08-21T12:17:08;2.35;;;1.42;;
16824;SDS011;8529;48.108;-1.706;2023-08-21T12:19:35;1.00;;;0.95;;
16824;SDS011;8529;48.108;-1.706;2023-08-21T12:22:03;1.20;;;0.93;;
16824;SDS011;8529;48.108;-1.706;2023-08-21T12:24:31;2.03;;;1.10;;
16824;SDS011;8529;48.108;-1.706;2023-08-21T12:26:58;1.48;;;1.02;;
16824;SDS011;8529;48.108;-1.706;2023-08-21T12:29:25;3.85;;;1.50;;
16824;SDS011;8529;48.108;-1.706;2023-08-21T12:31:52;1.88;;;1.10;;
16824;SDS011;8529;48.108;-1.706;2023-08-21T12:34:19;3.83;;;1.27;;
16824;SDS011;8529;48.108;-1.706;2023-08-21T12:36:46;3.13;;;1.58;;
16824;SDS011;8529;48.108;-1.706;2023-08-21T12:39:13;3.75;;;1.55;;
16824;SDS011;8529;48.108;-1.706;2023-08-21T12:41:42;2.63;;;1.30;;
16824;SDS011;8529;48.108;-1.706;2023-08-21T12:44:09;5.45;;;1.55;;
16824;SDS011;8529;48.108;-1.706;2023-08-21T12:46:36;1.17;;;1.02;;
16824;SDS011;8529;48.108;-1.706;2023-08-21T12:49:03;1.90;;;1.10;;
16824;SDS011;8529;48.108;-1.706;2023-08-21T12:51:30;2.25;;;1.10;;
16824;SDS011;8529;48.108;-1.706;2023-08-21T12:53:57;1.30;;;0.90;;
16824;SDS011;8529;48.108;-1.706;2023-08-21T12:56:24;1.58;;;1.05;;
16824;SDS011;8529;48.108;-1.706;2023-08-21T12:58:52;3.35;;;1.45;;
16824;SDS011;8529;48.108;-1.706;2023-08-21T13:01:19;4.07;;;1.50;;
16824;SDS011;8529;48.108;-1.706;2023-08-21T13:03:46;3.72;;;1.38;;
16824;SDS011;8529;48.108;-1.706;2023-08-21T13:06:13;1.20;;;1.05;;
16824;SDS011;8529;48.108;-1.706;2023-08-21T13:08:40;2.85;;;1.20;;
16824;SDS011;8529;48.108;-1.706;2023-08-21T13:11:08;2.83;;;1.20;;
16824;SDS011;8529;48.108;-1.706;2023-08-21T13:13:35;3.30;;;1.30;;
16824;SDS011;8529;48.108;-1.706;2023-08-21T13:16:03;3.28;;;1.40;;
16824;SDS011;8529;48.108;-1.706;2023-08-21T13:18:30;1.50;;;1.00;;
16824;SDS011;8529;48.108;-1.706;2023-08-21T13:20:57;2.25;;;1.05;;
16824;SDS011;8529;48.108;-1.706;2023-08-21T13:23:24;1.58;;;1.00;;
16824;SDS011;8529;48.108;-1.706;2023-08-21T13:25:51;2.83;;;1.30;;
16824;SDS011;8529;48.108;-1.706;2023-08-21T13:28:17;1.45;;;1.00;;
16824;SDS011;8529;48.108;-1.706;2023-08-21T13:30:44;1.00;;;0.90;;
16824;SDS011;8529;48.108;-1.706;2023-08-21T13:33:14;2.25;;;1.05;;
16824;SDS011;8529;48.108;-1.706;2023-08-21T13:35:43;1.65;;;1.15;;
16824;SDS011;8529;48.108;-1.706;2023-08-21T13:38:10;2.35;;;1.27;;
16824;SDS011;8529;48.108;-1.706;2023-08-21T13:40:36;1.30;;;1.10;;
16824;SDS011;8529;48.108;-1.706;2023-08-21T13:43:03;2.58;;;1.05;;
16824;SDS011;8529;48.108;-1.706;2023-08-21T13:45:32;3.38;;;1.27;;
16824;SDS011;8529;48.108;-1.706;2023-08-21T13:47:59;1.35;;;1.05;;
16824;SDS011;8529;48.108;-1.706;2023-08-21T13:50:27;1.90;;;1.20;;
16824;SDS011;8529;48.108;-1.706;2023-08-21T13:52:54;2.72;;;1.30;;
16824;SDS011;8529;48.108;-1.706;2023-08-21T13:55:21;1.45;;;1.05;;
16824;SDS011;8529;48.108;-1.706;2023-08-21T13:57:48;3.42;;;0.90;;
16824;SDS011;8529;48.108;-1.706;2023-08-21T14:00:15;3.53;;;1.30;;
16824;SDS011;8529;48.108;-1.706;2023-08-21T14:02:43;5.53;;;1.40;;
16824;SDS011;8529;48.108;-1.706;2023-08-21T14:05:10;4.10;;;1.55;;
16824;SDS011;8529;48.108;-1.706;2023-08-21T14:07:38;1.92;;;1.10;;
16824;SDS011;8529;48.108;-1.706;2023-08-21T14:10:06;2.30;;;1.23;;
16824;SDS011;8529;48.108;-1.706;2023-08-21T14:12:33;2.95;;;1.20;;
16824;SDS011;8529;48.108;-1.706;2023-08-21T14:15:00;2.85;;;1.48;;
16824;SDS011;8529;48.108;-1.706;2023-08-21T14:17:27;1.88;;;1.20;;
16824;SDS011;8529;48.108;-1.706;2023-08-21T14:19:54;2.47;;;1.02;;
16824;SDS011;8529;48.108;-1.706;2023-08-21T14:22:21;2.70;;;1.20;;
16824;SDS011;8529;48.108;-1.706;2023-08-21T14:24:49;1.50;;;1.08;;
16824;SDS011;8529;48.108;-1.706;2023-08-21T14:27:16;2.58;;;1.10;;
16824;SDS011;8529;48.108;-1.706;2023-08-21T14:29:43;2.80;;;1.38;;
16824;SDS011;8529;48.108;-1.706;2023-08-21T14:32:10;2.83;;;1.33;;
16824;SDS011;8529;48.108;-1.706;2023-08-21T14:34:37;3.90;;;1.17;;
16824;SDS011;8529;48.108;-1.706;2023-08-21T14:37:04;3.88;;;1.15;;
16824;SDS011;8529;48.108;-1.706;2023-08-21T14:39:31;2.45;;;1.35;;
16824;SDS011;8529;48.108;-1.706;2023-08-21T14:41:59;3.95;;;1.60;;
16824;SDS011;8529;48.108;-1.706;2023-08-21T14:44:27;3.85;;;1.40;;
16824;SDS011;8529;48.108;-1.706;2023-08-21T14:46:54;1.50;;;1.40;;
16824;SDS011;8529;48.108;-1.706;2023-08-21T14:49:22;6.55;;;1.45;;
16824;SDS011;8529;48.108;-1.706;2023-08-21T14:51:50;4.28;;;1.23;;
16824;SDS011;8529;48.108;-1.706;2023-08-21T14:54:17;2.67;;;1.45;;